upcoming events


Flight Radar

Available data for FALA from the past 2 hours
LANSERIA (CIV/MI
Metar
FALA 240100Z AUTO 12006KT //// ////// 12/08 Q1028
TAF
TAF FALA 232200Z 2400/2424 11015KT 9999 SCT015 FM240100 05012KT 9999 BKN012 PROB30 TEMPO 2402/2407 5000 BR BKN010 BECMG 2405/2407 35015KT BKN020 BECMG 2407/2409 CAVOK TX28/2413Z TN12/2404Z

ABSOLUTE AVIATION GROUP

WITH YOU FOR THE JOURNEY

Pin It on Pinterest

Share This